Time;durP1;ratioP1;P1;durP2;ratioP2;P2;SDS_P1;SDS_P2;PMS_P1;PMS_P2;Temp;Humidity;BMP_temperature;BMP_pressure;BME280_temperature;BME280_humidity;BME280_pressure;Samples;Min_cycle;Max_cycle;Signal;HPM_P1;HPM_P2
2022/09/24 00:00:24;;;;;;;7.70;6.90;;;18.00;99.90;;;;;;1034954;28;20046;-71
2022/09/24 00:00:54;;;;;;;8.30;7.50;;;18.00;99.90;;;;;;1034922;28;20153;-72
2022/09/24 00:01:28;;;;;;;9.00;8.03;;;18.00;99.90;;;;;;1030666;28;20042;-72
2022/09/24 00:01:59;;;;;;;8.00;7.20;;;18.00;99.90;;;;;;1031076;28;20113;-72
2022/09/24 00:02:30;;;;;;;7.55;6.85;;;18.00;99.90;;;;;;1039253;28;19997;-72
2022/09/24 00:03:00;;;;;;;8.33;7.53;;;18.00;99.90;;;;;;1038836;28;20021;-72
2022/09/24 00:03:31;;;;;;;7.27;6.57;;;18.00;99.90;;;;;;1034978;28;20028;-73
2022/09/24 00:04:04;;;;;;;7.33;6.63;;;18.00;99.90;;;;;;1034745;28;20029;-72
2022/09/24 00:04:34;;;;;;;7.53;6.82;;;18.00;99.90;;;;;;1030639;28;20062;-72
2022/09/24 00:05:05;;;;;;;7.00;6.30;;;17.90;99.90;;;;;;1035602;28;20046;-72
2022/09/24 00:05:38;;;;;;;7.85;7.15;;;18.00;99.90;;;;;;1034333;28;20531;-72
2022/09/24 00:06:11;;;;;;;8.07;7.28;;;18.00;99.90;;;;;;1035389;28;20021;-72
2022/09/24 00:06:44;;;;;;;7.90;7.10;;;18.00;99.90;;;;;;1034581;28;20429;-72
2022/09/24 00:07:14;;;;;;;7.25;6.55;;;18.00;99.90;;;;;;1036387;28;20014;-72
2022/09/24 00:07:45;;;;;;;7.37;6.67;;;18.00;99.90;;;;;;1042582;28;20009;-72
2022/09/24 00:08:17;;;;;;;7.77;7.03;;;18.00;99.90;;;;;;1034800;28;20076;-72
2022/09/24 00:08:51;;;;;;;7.57;6.88;;;18.00;99.90;;;;;;1035653;28;20072;-72
2022/09/24 00:09:22;;;;;;;7.07;6.35;;;18.00;99.90;;;;;;1038654;28;20148;-72
2022/09/24 00:09:52;;;;;;;8.00;7.27;;;18.00;99.90;;;;;;1034463;28;20013;-72
2022/09/24 00:10:23;;;;;;;9.50;7.73;;;18.00;99.90;;;;;;1035849;28;20251;-72
2022/09/24 00:10:55;;;;;;;7.57;6.77;;;18.00;99.90;;;;;;1034468;28;20473;-72
2022/09/24 00:11:27;;;;;;;8.05;6.80;;;18.00;99.90;;;;;;1035249;28;20018;-71
2022/09/24 00:11:59;;;;;;;8.15;7.35;;;18.00;99.90;;;;;;1034424;28;20022;-72
2022/09/24 00:12:31;;;;;;;7.57;6.88;;;18.00;99.90;;;;;;1034472;28;20033;-72
2022/09/24 00:13:01;;;;;;;7.07;6.47;;;18.00;99.90;;;;;;1035637;28;20047;-72
2022/09/24 00:13:33;;;;;;;7.67;6.87;;;18.00;99.90;;;;;;1038562;28;20036;-71
2022/09/24 00:14:05;;;;;;;7.50;6.30;;;18.00;99.90;;;;;;1038930;28;20454;-72
2022/09/24 00:14:36;;;;;;;8.38;7.53;;;18.00;99.90;;;;;;1035609;28;20021;-71
2022/09/24 00:15:07;;;;;;;8.37;6.90;;;18.00;99.90;;;;;;1034421;28;20097;-72
2022/09/24 00:15:39;;;;;;;8.82;7.60;;;18.00;99.90;;;;;;1035416;28;20022;-72
2022/09/24 00:16:13;;;;;;;7.60;6.70;;;18.00;99.90;;;;;;1035208;28;20018;-71
2022/09/24 00:16:44;;;;;;;7.90;7.10;;;18.00;99.90;;;;;;1035114;28;20014;-72
2022/09/24 00:17:15;;;;;;;8.20;6.93;;;18.00;99.90;;;;;;1036121;28;20014;-72
2022/09/24 00:17:46;;;;;;;8.70;7.80;;;18.00;99.90;;;;;;1035074;28;20620;-72
2022/09/24 00:18:17;;;;;;;8.60;7.57;;;17.90;99.90;;;;;;1039218;28;20010;-71
2022/09/24 00:18:47;;;;;;;6.97;6.30;;;18.00;99.90;;;;;;1038801;28;20039;-72
2022/09/24 00:19:18;;;;;;;8.63;7.83;;;17.90;99.90;;;;;;1038702;28;20022;-72
2022/09/24 00:19:49;;;;;;;8.57;7.67;;;17.90;99.90;;;;;;1036490;28;20022;-72
2022/09/24 00:20:21;;;;;;;9.37;8.47;;;17.90;99.90;;;;;;1034583;28;20022;-72
2022/09/24 00:20:51;;;;;;;7.03;6.32;;;17.90;99.90;;;;;;1035208;28;20505;-72
2022/09/24 00:21:31;;;;;;;7.43;6.30;;;17.90;99.90;;;;;;1035705;28;20440;-72
2022/09/24 00:22:02;;;;;;;7.63;6.93;;;17.90;99.90;;;;;;1039855;28;20020;-72
2022/09/24 00:22:32;;;;;;;8.50;7.70;;;17.90;99.90;;;;;;1036361;28;20024;-72
2022/09/24 00:23:04;;;;;;;8.20;6.70;;;17.90;99.90;;;;;;1035542;28;20022;-72
2022/09/24 00:23:35;;;;;;;8.73;7.60;;;17.90;99.90;;;;;;1038768;28;20060;-72
2022/09/24 00:26:49;;;;;;;7.90;7.10;;;17.90;99.90;;;;;;1039806;28;20040;-72
2022/09/24 00:27:20;;;;;;;7.75;6.95;;;17.90;99.90;;;;;;1039479;28;20475;-72
2022/09/24 00:27:51;;;;;;;7.57;6.87;;;17.90;99.90;;;;;;1038130;28;20486;-72
2022/09/24 00:28:21;;;;;;;8.53;7.50;;;17.90;99.90;;;;;;1036441;28;20014;-73
2022/09/24 00:28:52;;;;;;;8.10;7.33;;;17.90;99.90;;;;;;1035431;28;20018;-72
2022/09/24 00:29:23;;;;;;;8.70;7.73;;;17.90;99.90;;;;;;1039417;28;20045;-71
2022/09/24 00:29:53;;;;;;;7.28;6.57;;;17.90;99.90;;;;;;1038275;28;20024;-72
2022/09/24 00:30:24;;;;;;;7.80;7.10;;;17.90;99.90;;;;;;1039942;28;20013;-72
2022/09/24 00:30:57;;;;;;;8.10;7.30;;;17.90;99.90;;;;;;1039696;28;20083;-73
2022/09/24 00:31:27;;;;;;;7.93;6.93;;;17.90;99.90;;;;;;1040204;28;20013;-72
2022/09/24 00:31:58;;;;;;;6.97;6.27;;;17.90;99.90;;;;;;1031178;28;20072;-72
2022/09/24 00:32:29;;;;;;;9.43;8.53;;;17.90;99.90;;;;;;1033941;28;20022;-72
2022/09/24 00:32:59;;;;;;;8.50;7.67;;;17.90;99.90;;;;;;1039186;28;20010;-71
2022/09/24 00:33:32;;;;;;;8.03;7.27;;;17.90;99.90;;;;;;1037215;28;20010;-71
2022/09/24 00:34:02;;;;;;;8.65;7.68;;;17.90;99.90;;;;;;1039586;28;20021;-72
2022/09/24 00:34:33;;;;;;;8.50;7.70;;;17.90;99.90;;;;;;1035425;28;20029;-72
2022/09/24 00:35:05;;;;;;;8.07;6.80;;;17.80;99.90;;;;;;1037437;28;20473;-73
2022/09/24 00:35:40;;;;;;;8.35;6.45;;;17.80;99.90;;;;;;1039433;28;20030;-71
2022/09/24 00:36:10;;;;;;;7.22;6.53;;;17.90;99.90;;;;;;1043690;28;20017;-72
2022/09/24 00:36:41;;;;;;;7.73;6.70;;;17.80;99.90;;;;;;1038963;28;20021;-71
2022/09/24 00:37:11;;;;;;;7.47;6.77;;;17.80;99.90;;;;;;1035222;28;20053;-71
2022/09/24 00:37:43;;;;;;;7.73;7.00;;;17.80;99.90;;;;;;1038016;28;20056;-71
2022/09/24 00:38:14;;;;;;;8.57;7.68;;;17.90;99.90;;;;;;1035410;28;20487;-71
2022/09/24 00:38:47;;;;;;;7.23;6.53;;;17.90;99.90;;;;;;1035130;28;20729;-72
2022/09/24 00:39:18;;;;;;;8.02;7.22;;;17.90;99.90;;;;;;1040105;28;20104;-71
2022/09/24 00:39:48;;;;;;;8.57;6.87;;;17.90;99.90;;;;;;1038187;28;20067;-71
2022/09/24 00:40:20;;;;;;;7.83;6.73;;;17.90;99.90;;;;;;1036460;28;20017;-71
2022/09/24 00:40:51;;;;;;;6.93;6.28;;;17.90;99.90;;;;;;1040359;28;20063;-71
2022/09/24 00:41:25;;;;;;;7.00;6.30;;;17.90;99.90;;;;;;1043642;28;20466;-70
2022/09/24 00:41:56;;;;;;;8.60;7.70;;;17.90;99.90;;;;;;1040952;28;20044;-71
2022/09/24 00:42:28;;;;;;;7.77;6.97;;;17.90;99.90;;;;;;1035621;28;20030;-71
2022/09/24 00:42:59;;;;;;;7.90;7.10;;;17.90;99.90;;;;;;1039969;28;20048;-71
2022/09/24 00:43:33;;;;;;;8.30;7.22;;;17.90;99.90;;;;;;1035050;28;20037;-72
2022/09/24 00:44:40;;;;;;;8.63;7.57;;;17.90;99.90;;;;;;1035973;28;20115;-71
2022/09/24 00:45:10;;;;;;;8.15;7.35;;;17.90;99.90;;;;;;1035693;28;20036;-71
2022/09/24 00:45:41;;;;;;;8.17;7.37;;;17.90;99.90;;;;;;1037289;28;20025;-71
2022/09/24 00:46:39;;;;;;;6.97;6.27;;;17.90;99.90;;;;;;1039849;28;20025;-71
2022/09/24 00:47:18;;;;;;;7.47;6.78;;;17.90;99.90;;;;;;1040008;28;20049;-71
2022/09/24 00:47:50;;;;;;;9.27;7.60;;;17.90;99.90;;;;;;1034668;28;20025;-71
2022/09/24 00:48:20;;;;;;;8.52;6.95;;;17.90;99.90;;;;;;1036380;28;20033;-71
2022/09/24 00:48:56;;;;;;;6.93;6.27;;;17.90;99.90;;;;;;1035409;28;20053;-71
2022/09/24 00:49:27;;;;;;;7.57;6.78;;;17.90;99.90;;;;;;1040152;28;20026;-71
2022/09/24 00:50:05;;;;;;;7.53;6.80;;;17.90;99.90;;;;;;1038178;28;20029;-71
2022/09/24 00:50:35;;;;;;;8.25;7.45;;;17.90;99.90;;;;;;1035601;28;20034;-72
2022/09/24 00:51:08;;;;;;;7.73;6.97;;;17.90;99.90;;;;;;1032198;28;20118;-71
2022/09/24 00:51:41;;;;;;;8.80;8.00;;;17.90;99.90;;;;;;1035085;28;20485;-72
2022/09/24 00:52:12;;;;;;;7.57;6.88;;;17.90;99.90;;;;;;1031744;28;20126;-72
2022/09/24 00:52:57;;;;;;;7.67;6.90;;;17.90;99.90;;;;;;1028541;28;20025;-72
2022/09/24 00:53:32;;;;;;;7.57;6.88;;;17.90;99.90;;;;;;1027756;28;20286;-72
2022/09/24 00:54:08;;;;;;;8.45;7.65;;;17.90;99.90;;;;;;1031775;28;20382;-72
2022/09/24 00:54:40;;;;;;;7.40;6.70;;;17.90;99.90;;;;;;1036117;28;20530;-72
2022/09/24 00:55:13;;;;;;;7.57;6.88;;;17.90;99.90;;;;;;1036912;28;20108;-72
2022/09/24 00:55:49;;;;;;;8.75;7.85;;;17.90;99.90;;;;;;1038007;28;20022;-72
2022/09/24 00:56:21;;;;;;;7.50;6.80;;;17.90;99.90;;;;;;1035414;28;20728;-70
2022/09/24 00:56:52;;;;;;;8.77;7.72;;;17.90;99.90;;;;;;1035199;28;20064;-71
2022/09/24 00:57:24;;;;;;;8.30;7.25;;;17.90;99.90;;;;;;1037394;28;20022;-71
2022/09/24 00:57:57;;;;;;;6.60;5.90;;;17.90;99.90;;;;;;1035977;28;20057;-72
2022/09/24 00:58:30;;;;;;;9.00;8.10;;;17.90;99.90;;;;;;1035991;28;20030;-71
2022/09/24 00:59:02;;;;;;;8.20;7.40;;;17.90;99.90;;;;;;1036115;28;20022;-71
2022/09/24 00:59:34;;;;;;;9.07;7.55;;;17.80;99.90;;;;;;1040098;28;20017;-71
2022/09/24 01:00:06;;;;;;;7.38;6.65;;;17.80;99.90;;;;;;1039416;28;20070;-72
2022/09/24 01:00:39;;;;;;;8.73;7.82;;;17.80;99.90;;;;;;1039189;28;20071;-72
2022/09/24 01:01:09;;;;;;;6.93;6.22;;;17.90;99.90;;;;;;1041363;28;20075;-71
2022/09/24 01:01:40;;;;;;;8.60;7.70;;;17.80;99.90;;;;;;1035114;28;20026;-71
2022/09/24 01:02:11;;;;;;;9.00;8.20;;;17.80;99.90;;;;;;1034989;28;20389;-71
2022/09/24 01:02:45;;;;;;;7.95;7.22;;;17.80;99.90;;;;;;1037343;28;20128;-71
2022/09/24 01:03:21;;;;;;;8.70;7.90;;;17.80;99.90;;;;;;1039020;28;20053;-71
2022/09/24 01:03:54;;;;;;;9.18;8.27;;;17.80;99.90;;;;;;1036035;28;20836;-71
2022/09/24 01:04:26;;;;;;;9.60;8.60;;;17.80;99.90;;;;;;1034204;28;20021;-71
2022/09/24 01:04:58;;;;;;;8.50;7.63;;;17.80;99.90;;;;;;1035432;28;20026;-71
2022/09/24 01:05:29;;;;;;;8.52;7.63;;;17.80;99.90;;;;;;1035245;28;20021;-71
2022/09/24 01:06:00;;;;;;;8.40;7.60;;;17.80;99.90;;;;;;1035245;28;20022;-70
2022/09/24 01:06:30;;;;;;;8.53;7.73;;;17.80;99.90;;;;;;1031369;28;20346;-71
2022/09/24 01:07:01;;;;;;;9.23;7.90;;;17.80;99.90;;;;;;1031305;28;20023;-71
2022/09/24 01:07:32;;;;;;;7.33;6.63;;;17.80;99.90;;;;;;1035028;28;20018;-72
2022/09/24 01:08:05;;;;;;;8.27;7.43;;;17.80;99.90;;;;;;1036079;28;20379;-71
2022/09/24 01:08:36;;;;;;;9.07;8.15;;;17.80;99.90;;;;;;1034827;28;20021;-70
2022/09/24 01:09:07;;;;;;;8.73;7.83;;;17.80;99.90;;;;;;1035951;28;20488;-71
2022/09/24 01:09:38;;;;;;;8.10;7.32;;;17.80;99.90;;;;;;1034183;28;20073;-71
2022/09/24 01:10:09;;;;;;;7.27;6.57;;;17.80;99.90;;;;;;1035320;28;20056;-71
2022/09/24 01:11:02;;;;;;;9.57;8.57;;;17.80;99.90;;;;;;1035809;28;20519;-71
2022/09/24 01:11:41;;;;;;;9.02;8.13;;;17.80;99.90;;;;;;1035855;28;20014;-70
2022/09/24 01:12:13;;;;;;;9.15;8.25;;;17.80;99.90;;;;;;1039062;28;20018;-70
2022/09/24 01:12:54;;;;;;;9.70;8.60;;;17.80;99.90;;;;;;1034884;28;20022;-69
2022/09/24 01:13:39;;;;;;;10.00;9.00;;;17.80;99.90;;;;;;1030943;28;20122;-70
2022/09/24 01:14:19;;;;;;;9.85;8.85;;;17.80;99.90;;;;;;1031530;28;20183;-71
2022/09/24 01:15:05;;;;;;;9.60;8.57;;;17.80;99.90;;;;;;1030846;28;20018;-72
2022/09/24 01:15:56;;;;;;;8.38;7.50;;;17.80;99.90;;;;;;1032175;28;20070;-71
2022/09/24 01:16:35;;;;;;;7.80;7.10;;;17.80;99.90;;;;;;1042892;28;20053;-70
2022/09/24 01:17:17;;;;;;;9.35;8.40;;;17.80;99.90;;;;;;1035937;28;20061;-70
2022/09/24 01:18:07;;;;;;;9.52;8.52;;;17.80;99.90;;;;;;1037945;28;20022;-70
2022/09/24 01:19:09;;;;;;;8.68;7.80;;;17.80;99.90;;;;;;1039203;28;20381;-70
2022/09/24 01:20:01;;;;;;;9.45;8.45;;;17.80;99.90;;;;;;1035533;28;20014;-70
2022/09/24 01:20:58;;;;;;;7.38;6.68;;;17.80;99.90;;;;;;1037935;28;20017;-70
2022/09/24 01:21:48;;;;;;;;;;;17.80;99.90;;;;;;1035123;28;20018;-70
2022/09/24 01:22:53;;;;;;;8.73;7.75;;;17.80;99.90;;;;;;1035862;28;19901;-72
2022/09/24 01:23:56;;;;;;;7.78;6.97;;;17.80;99.90;;;;;;1032404;28;20350;-72
2022/09/24 01:24:59;;;;;;;8.20;7.40;;;17.80;99.90;;;;;;1031236;28;20022;-71
2022/09/24 01:25:48;;;;;;;9.70;8.70;;;17.80;99.90;;;;;;1031203;28;20023;-71
2022/09/24 01:26:40;;;;;;;8.88;7.97;;;17.80;99.90;;;;;;1034171;28;20023;-71
2022/09/24 01:27:21;;;;;;;8.15;7.40;;;17.80;99.90;;;;;;1039277;28;20024;-70
2022/09/24 01:28:11;;;;;;;9.93;8.73;;;17.80;99.90;;;;;;1035001;28;20033;-72
2022/09/24 01:29:07;;;;;;;9.23;8.13;;;17.80;99.90;;;;;;1038925;28;20028;-71
2022/09/24 01:29:52;;;;;;;9.48;8.10;;;17.80;99.90;;;;;;1035148;28;20026;-71
2022/09/24 01:30:24;;;;;;;10.60;8.20;;;17.80;99.90;;;;;;1039636;28;20026;-71
2022/09/24 01:31:02;;;;;;;9.30;8.30;;;17.80;99.90;;;;;;1036475;28;20985;-70
2022/09/24 01:31:45;;;;;;;11.02;9.90;;;17.80;99.90;;;;;;1035842;28;20033;-71
2022/09/24 01:32:36;;;;;;;10.10;9.10;;;17.80;99.90;;;;;;1031010;28;20575;-72
2022/09/24 01:33:12;;;;;;;9.52;8.52;;;17.80;99.90;;;;;;1032748;28;20122;-71
2022/09/24 01:33:48;;;;;;;10.73;9.57;;;17.80;99.90;;;;;;1039145;28;20017;-71
2022/09/24 01:34:25;;;;;;;10.90;9.80;;;17.80;99.90;;;;;;1036821;28;20712;-71
2022/09/24 01:35:17;;;;;;;9.40;8.43;;;17.80;99.90;;;;;;1036845;28;20045;-70
2022/09/24 01:35:52;;;;;;;10.25;9.25;;;17.80;99.90;;;;;;1038887;28;20016;-71
2022/09/24 01:36:24;;;;;;;9.93;8.93;;;17.80;99.90;;;;;;1039312;28;20014;-71
2022/09/24 01:36:57;;;;;;;11.57;10.38;;;17.80;99.90;;;;;;1030842;28;20414;-70
2022/09/24 01:37:32;;;;;;;11.45;10.23;;;17.80;99.90;;;;;;1028668;28;20078;-71
2022/09/24 01:38:08;;;;;;;11.45;10.35;;;17.80;99.90;;;;;;1033244;28;20017;-71
2022/09/24 01:38:45;;;;;;;9.40;8.50;;;17.80;99.90;;;;;;1031090;28;20441;-71
2022/09/24 01:39:17;;;;;;;10.15;9.15;;;17.80;99.90;;;;;;1031854;28;20081;-71
2022/09/24 01:39:51;;;;;;;11.20;10.05;;;17.80;99.90;;;;;;1031334;28;20021;-71
2022/09/24 01:40:26;;;;;;;10.88;9.77;;;17.80;99.90;;;;;;1035949;28;20072;-71
2022/09/24 01:41:01;;;;;;;12.18;10.93;;;17.80;99.90;;;;;;1035193;28;20535;-70
2022/09/24 01:41:35;;;;;;;10.35;9.35;;;17.80;99.90;;;;;;1035414;28;20075;-70
2022/09/24 01:42:08;;;;;;;11.23;10.13;;;17.80;99.90;;;;;;1035846;28;20053;-70
2022/09/24 01:42:42;;;;;;;11.15;9.68;;;17.80;99.90;;;;;;1039173;28;20018;-70
2022/09/24 01:43:15;;;;;;;10.77;9.63;;;17.80;99.90;;;;;;1033543;28;20014;-70
2022/09/24 01:43:47;;;;;;;10.85;9.80;;;17.80;99.90;;;;;;1030787;28;20113;-71
2022/09/24 01:44:19;;;;;;;10.45;9.38;;;17.80;99.90;;;;;;1028830;28;20034;-71
2022/09/24 01:44:50;;;;;;;10.30;9.30;;;17.80;99.90;;;;;;1031831;28;20446;-70
2022/09/24 01:45:21;;;;;;;10.23;9.23;;;17.80;99.90;;;;;;1037696;28;20081;-70
2022/09/24 01:45:58;;;;;;;10.52;9.48;;;17.80;99.90;;;;;;1039837;28;20017;-70
2022/09/24 01:46:30;;;;;;;11.02;9.88;;;17.80;99.90;;;;;;1036714;28;20013;-71
2022/09/24 01:47:05;;;;;;;10.63;9.25;;;17.80;99.90;;;;;;1039861;28;20366;-70
2022/09/24 01:47:39;;;;;;;11.13;9.98;;;17.80;99.90;;;;;;1038898;28;20025;-70
2022/09/24 01:48:09;;;;;;;9.85;8.85;;;17.70;99.90;;;;;;1035217;28;20586;-72
2022/09/24 01:48:40;;;;;;;11.37;10.27;;;17.70;99.90;;;;;;1034990;28;20064;-70
2022/09/24 01:49:10;;;;;;;11.43;10.23;;;17.70;99.90;;;;;;1034993;28;20036;-69
2022/09/24 01:49:41;;;;;;;11.50;10.30;;;17.70;99.90;;;;;;1035668;28;20048;-70
2022/09/24 01:50:15;;;;;;;11.77;10.60;;;17.70;99.90;;;;;;1037135;28;20021;-70
2022/09/24 01:50:59;;;;;;;10.65;9.65;;;17.70;99.90;;;;;;1035725;28;20105;-70
2022/09/24 01:51:43;;;;;;;10.77;9.68;;;17.70;99.90;;;;;;1035180;28;20033;-70
2022/09/24 01:52:20;;;;;;;11.52;10.43;;;17.70;99.90;;;;;;1039784;28;20013;-71
2022/09/24 01:53:06;;;;;;;10.98;9.88;;;17.70;99.90;;;;;;1038949;28;20010;-70
2022/09/24 01:53:46;;;;;;;10.25;9.25;;;17.70;99.90;;;;;;1037611;28;20396;-70
2022/09/24 01:54:37;;;;;;;9.48;8.50;;;17.70;99.90;;;;;;1034914;28;20442;-70
2022/09/24 01:55:12;;;;;;;10.82;9.73;;;17.70;99.90;;;;;;1035754;28;20076;-70
2022/09/24 01:55:48;;;;;;;10.25;9.25;;;17.70;99.90;;;;;;1030714;28;20026;-70
2022/09/24 01:56:27;;;;;;;10.68;9.68;;;17.70;99.90;;;;;;1031565;28;20019;-69
2022/09/24 01:57:02;;;;;;;11.57;10.45;;;17.70;99.90;;;;;;1038491;28;20500;-70
2022/09/24 01:57:38;;;;;;;11.50;10.30;;;17.70;99.90;;;;;;1039967;28;20017;-70
2022/09/24 01:58:25;;;;;;;10.10;9.10;;;17.70;99.90;;;;;;1034636;28;20113;-73
2022/09/24 01:59:05;;;;;;;10.93;9.55;;;17.70;99.90;;;;;;1036509;28;20021;-70
2022/09/24 02:00:02;;;;;;;10.00;9.00;;;17.70;99.90;;;;;;1035007;28;20057;-70
2022/09/24 02:00:33;;;;;;;;;;;17.70;99.90;;;;;;1037163;28;20037;-70
2022/09/24 02:01:12;;;;;;;9.67;8.53;;;17.70;99.90;;;;;;1039066;28;19912;-71
2022/09/24 02:01:52;;;;;;;10.93;9.43;;;17.70;99.90;;;;;;1041137;28;20014;-70
2022/09/24 02:02:35;;;;;;;10.07;9.05;;;17.70;99.90;;;;;;1037545;28;20014;-71
2022/09/24 02:03:12;;;;;;;9.98;8.60;;;17.70;99.90;;;;;;1038980;28;20111;-71
2022/09/24 02:03:55;;;;;;;9.27;8.32;;;17.70;99.90;;;;;;1035214;28;20382;-71
2022/09/24 02:04:29;;;;;;;9.00;8.10;;;17.70;99.90;;;;;;1038765;28;20068;-70
2022/09/24 02:05:20;;;;;;;10.63;9.60;;;17.70;99.90;;;;;;1037011;28;20033;-70
2022/09/24 02:06:07;;;;;;;9.27;8.38;;;17.80;99.90;;;;;;1039229;28;20029;-70
2022/09/24 02:06:46;;;;;;;8.75;7.72;;;17.80;99.90;;;;;;1039742;28;20031;-70
2022/09/24 02:07:25;;;;;;;9.65;8.65;;;17.80;99.90;;;;;;1039313;28;20057;-70
2022/09/24 02:08:14;;;;;;;;;;;17.80;99.90;;;;;;1040600;28;20085;-70
2022/09/24 02:08:46;;;;;;;9.02;8.10;;;17.80;99.90;;;;;;1039125;28;19924;-71
2022/09/24 02:09:31;;;;;;;11.25;10.15;;;17.80;99.90;;;;;;1035621;28;20120;-71
2022/09/24 02:10:01;;;;;;;10.63;9.45;;;17.80;99.90;;;;;;1038263;28;20024;-71
2022/09/24 02:10:46;;;;;;;9.43;8.43;;;17.80;99.90;;;;;;1035531;28;20029;-70
2022/09/24 02:11:21;;;;;;;10.23;8.80;;;17.80;99.90;;;;;;1034925;28;20088;-70
2022/09/24 02:11:54;;;;;;;11.38;10.18;;;17.80;99.90;;;;;;1037351;28;20520;-71
2022/09/24 02:12:40;;;;;;;10.80;9.70;;;17.70;99.90;;;;;;1036765;28;20025;-70
2022/09/24 02:13:12;;;;;;;10.90;9.75;;;17.80;99.90;;;;;;1031810;28;20026;-70
2022/09/24 02:14:03;;;;;;;8.32;7.50;;;17.70;99.90;;;;;;1032655;28;20029;-71
2022/09/24 02:14:40;;;;;;;10.18;9.18;;;17.70;99.90;;;;;;1031553;28;20084;-71
2022/09/24 02:15:16;;;;;;;10.20;9.20;;;17.70;99.90;;;;;;1034776;28;20025;-71
2022/09/24 02:15:50;;;;;;;9.90;8.90;;;17.70;99.90;;;;;;1037297;28;20022;-70
2022/09/24 02:16:27;;;;;;;10.02;9.00;;;17.70;99.90;;;;;;1039003;28;20021;-70
2022/09/24 02:16:59;;;;;;;10.25;9.25;;;17.70;99.90;;;;;;1037039;28;20026;-71
2022/09/24 02:17:34;;;;;;;10.30;9.30;;;17.70;99.90;;;;;;1036205;28;20014;-70
2022/09/24 02:18:15;;;;;;;10.65;9.65;;;17.70;99.90;;;;;;1039285;28;20021;-71
2022/09/24 02:18:49;;;;;;;9.68;8.77;;;17.70;99.90;;;;;;1039497;28;20017;-70
2022/09/24 02:19:26;;;;;;;10.68;9.57;;;17.70;99.90;;;;;;1038599;28;20669;-70
2022/09/24 02:19:59;;;;;;;9.32;8.43;;;17.70;99.90;;;;;;1039393;28;20033;-70
2022/09/24 02:20:31;;;;;;;10.43;7.78;;;17.70;99.90;;;;;;1038876;28;20016;-70
2022/09/24 02:21:06;;;;;;;10.27;9.27;;;17.70;99.90;;;;;;1037059;28;20081;-70
2022/09/24 02:21:39;;;;;;;10.15;9.13;;;17.70;99.90;;;;;;1034850;28;20546;-70
2022/09/24 02:22:13;;;;;;;10.32;9.43;;;17.70;99.90;;;;;;1034123;28;20220;-70
2022/09/24 02:22:46;;;;;;;10.05;9.05;;;17.70;99.90;;;;;;1036591;28;20014;-69
2022/09/24 02:23:19;;;;;;;10.45;9.30;;;17.70;99.90;;;;;;1038788;28;20479;-71
2022/09/24 02:24:11;;;;;;;10.75;9.18;;;17.70;99.90;;;;;;1039781;28;20424;-70
2022/09/24 02:24:52;;;;;;;9.95;8.95;;;17.70;99.90;;;;;;1038724;28;20072;-70
2022/09/24 02:25:31;;;;;;;9.73;8.77;;;17.70;99.90;;;;;;1039206;28;20094;-69
2022/09/24 02:26:04;;;;;;;10.10;9.20;;;17.70;99.90;;;;;;1039633;28;20451;-69
2022/09/24 02:26:34;;;;;;;9.23;8.32;;;17.70;99.90;;;;;;1037624;28;20020;-70
2022/09/24 02:27:05;;;;;;;9.83;8.93;;;17.70;99.90;;;;;;1035460;28;20156;-69
2022/09/24 02:27:36;;;;;;;8.80;8.00;;;17.70;99.90;;;;;;1037627;28;20740;-69
2022/09/24 02:28:07;;;;;;;10.67;9.67;;;17.70;99.90;;;;;;1038983;28;20475;-71
2022/09/24 02:28:38;;;;;;;10.57;9.55;;;17.70;99.90;;;;;;1038987;28;20029;-72
2022/09/24 02:29:08;;;;;;;10.50;9.50;;;17.70;99.90;;;;;;1039550;28;20052;-70
2022/09/24 02:29:39;;;;;;;10.13;9.20;;;17.70;99.90;;;;;;1038672;28;20275;-71
2022/09/24 02:30:10;;;;;;;9.00;8.10;;;17.70;99.90;;;;;;1039905;28;20025;-69
2022/09/24 02:30:45;;;;;;;10.07;9.18;;;17.70;99.90;;;;;;1038833;28;20028;-70
2022/09/24 02:31:29;;;;;;;10.77;9.73;;;17.70;99.90;;;;;;1035100;28;20034;-70
2022/09/24 02:32:01;;;;;;;10.02;9.02;;;17.70;99.90;;;;;;1034587;28;20113;-70
2022/09/24 02:32:34;;;;;;;9.70;8.73;;;17.70;99.90;;;;;;1037251;28;20088;-70
2022/09/24 02:34:19;;;;;;;9.75;8.82;;;17.70;99.90;;;;;;1036580;28;20026;-69
2022/09/24 02:34:20;;;;;;;10.05;8.98;;;17.70;99.90;;;;;;1035399;28;20096;-70
2022/09/24 02:35:01;;;;;;;9.75;8.77;;;17.70;99.90;;;;;;1034278;28;20100;-71
2022/09/24 02:35:32;;;;;;;9.93;8.93;;;17.60;99.90;;;;;;1035931;28;20074;-70
2022/09/24 02:36:02;;;;;;;10.27;9.27;;;17.70;99.90;;;;;;1037881;28;20021;-70
2022/09/24 02:36:34;;;;;;;10.20;9.20;;;17.60;99.90;;;;;;1039688;28;20558;-70
2022/09/24 02:37:08;;;;;;;10.35;9.25;;;17.60;99.90;;;;;;1039127;28;20029;-69
2022/09/24 02:37:41;;;;;;;10.02;9.02;;;17.70;99.90;;;;;;1036919;28;20809;-70
2022/09/24 02:38:18;;;;;;;9.65;8.65;;;17.70;99.90;;;;;;1039229;28;20013;-70
2022/09/24 02:38:49;;;;;;;10.15;9.15;;;17.70;99.90;;;;;;1038714;28;20022;-70
2022/09/24 02:39:20;;;;;;;8.23;7.43;;;17.70;99.90;;;;;;1042134;28;20017;-70
2022/09/24 02:39:51;;;;;;;10.35;8.73;;;17.60;99.90;;;;;;1035786;28;20014;-70
2022/09/24 02:40:21;;;;;;;9.83;8.83;;;17.60;99.90;;;;;;1035048;28;20401;-70
2022/09/24 02:40:53;;;;;;;8.60;7.80;;;17.60;99.90;;;;;;1036852;28;20010;-70
2022/09/24 02:41:24;;;;;;;10.52;9.52;;;17.60;99.90;;;;;;1038769;28;20017;-70
2022/09/24 02:41:57;;;;;;;9.23;8.35;;;17.70;99.90;;;;;;1035326;28;20052;-70
2022/09/24 02:42:28;;;;;;;9.85;8.95;;;17.70;99.90;;;;;;1035321;28;20088;-70
2022/09/24 02:42:58;;;;;;;9.27;8.38;;;17.70;99.90;;;;;;1035149;28;20029;-70
2022/09/24 02:43:29;;;;;;;10.17;9.07;;;17.70;99.90;;;;;;1039367;28;20006;-70
2022/09/24 02:44:00;;;;;;;9.57;8.67;;;17.70;99.90;;;;;;1039236;28;20492;-70
2022/09/24 02:44:31;;;;;;;10.17;9.17;;;17.70;99.90;;;;;;1037784;28;20022;-70
2022/09/24 02:45:04;;;;;;;9.45;8.55;;;17.70;99.90;;;;;;1038422;28;20447;-70
2022/09/24 02:45:34;;;;;;;10.48;9.30;;;17.70;99.90;;;;;;1038550;28;20021;-71
2022/09/24 02:46:05;;;;;;;9.87;8.87;;;17.70;99.90;;;;;;1039631;28;20013;-70
2022/09/24 02:46:35;;;;;;;9.70;8.70;;;17.70;99.90;;;;;;1032239;28;20671;-70
2022/09/24 02:47:07;;;;;;;8.93;8.07;;;17.70;99.90;;;;;;1031584;28;20501;-70
2022/09/24 02:47:37;;;;;;;9.82;8.90;;;17.70;99.90;;;;;;1036831;28;20018;-70
2022/09/24 02:48:08;;;;;;;9.77;8.87;;;17.70;99.90;;;;;;1038755;28;20075;-70
2022/09/24 02:48:39;;;;;;;9.50;8.60;;;17.70;99.90;;;;;;1039364;28;20045;-70
2022/09/24 02:49:10;;;;;;;9.57;8.67;;;17.70;99.90;;;;;;1038877;28;20029;-70
2022/09/24 02:49:40;;;;;;;9.60;8.70;;;17.70;99.90;;;;;;1035388;28;20033;-70
2022/09/24 02:50:11;;;;;;;9.57;8.67;;;17.70;99.90;;;;;;1034980;28;20021;-70
2022/09/24 02:50:42;;;;;;;8.70;7.83;;;17.70;99.90;;;;;;1038549;28;20033;-70
2022/09/24 02:51:12;;;;;;;9.77;8.77;;;17.70;99.90;;;;;;1039365;28;20021;-70
2022/09/24 02:51:43;;;;;;;10.70;9.30;;;17.70;99.90;;;;;;1036036;28;20021;-70
2022/09/24 02:52:14;;;;;;;9.40;8.50;;;17.70;99.90;;;;;;1035233;28;20100;-71
2022/09/24 02:52:44;;;;;;;10.13;9.13;;;17.70;99.90;;;;;;1034766;28;20428;-70
2022/09/24 02:53:15;;;;;;;10.30;9.30;;;17.70;99.90;;;;;;1035859;28;20033;-70
2022/09/24 02:53:45;;;;;;;9.57;8.53;;;17.70;99.90;;;;;;1039580;28;20387;-70
2022/09/24 02:54:16;;;;;;;9.77;8.20;;;17.70;99.90;;;;;;1039129;28;20029;-70
2022/09/24 02:54:47;;;;;;;8.80;8.00;;;17.70;99.90;;;;;;1042925;28;20056;-70
2022/09/24 02:55:17;;;;;;;10.02;9.07;;;17.70;99.90;;;;;;1035582;28;20037;-70
2022/09/24 02:55:48;;;;;;;10.03;8.13;;;17.70;99.90;;;;;;1034264;28;20060;-70
2022/09/24 02:56:18;;;;;;;10.63;9.57;;;17.70;99.90;;;;;;1035325;28;20168;-70
2022/09/24 02:56:49;;;;;;;9.53;8.63;;;17.70;99.90;;;;;;1034478;28;20149;-70
2022/09/24 02:57:19;;;;;;;10.53;9.53;;;17.70;99.90;;;;;;1039003;28;20534;-70
2022/09/24 02:57:50;;;;;;;9.50;8.63;;;17.70;99.90;;;;;;1043169;28;20080;-69
2022/09/24 02:58:20;;;;;;;9.80;8.90;;;17.70;99.90;;;;;;1041884;28;20112;-70
2022/09/24 02:58:51;;;;;;;10.20;9.20;;;17.70;99.90;;;;;;1035495;28;20022;-70
2022/09/24 02:59:22;;;;;;;9.73;8.73;;;17.70;99.90;;;;;;1037930;28;20079;-70
2022/09/24 02:59:52;;;;;;;9.10;8.30;;;17.70;99.90;;;;;;1039127;28;20018;-70
2022/09/24 03:00:23;;;;;;;9.50;8.57;;;17.70;99.90;;;;;;1039629;28;20019;-71
2022/09/24 03:00:53;;;;;;;11.40;10.30;;;17.70;99.90;;;;;;1037456;28;20020;-70
2022/09/24 03:01:24;;;;;;;9.83;8.40;;;17.70;99.90;;;;;;1034980;28;20081;-70
2022/09/24 03:01:55;;;;;;;10.17;9.17;;;17.70;99.90;;;;;;1036902;28;20010;-70
2022/09/24 03:02:25;;;;;;;8.67;7.77;;;17.70;99.90;;;;;;1038917;28;20479;-70
2022/09/24 03:02:56;;;;;;;7.23;6.53;;;17.70;99.90;;;;;;1039602;28;20437;-70
2022/09/24 03:03:27;;;;;;;9.87;8.83;;;17.70;99.90;;;;;;1038987;28;20654;-70
2022/09/24 03:03:58;;;;;;;9.10;8.20;;;17.70;99.90;;;;;;1039123;28;20023;-70
2022/09/24 03:04:29;;;;;;;10.20;9.20;;;17.70;99.90;;;;;;1034954;28;20013;-70